Bengaluru International Airport

Airport
ICAO code: 
VOBL
Summary
ICAO Region: 
APAC
Territory: 
Location: 
Bangalore, Karnataka,
Coordinates: 
Aerial View: 
13° 12' 21.65" N, 77° 42' 17.768" E
Airport WX: 
Cumulonimbus
Metar
Observation
VOBL 030130Z 19004KT 0800 R09R/2000 R27L/2000 FG BKN004 SCT012 19/19 Q1016 TEMPO 0500 FG
Station
BENGALURU
Date/Time
2021-12-03 01:30:00
Wind direction
190°
Wind speed
04 kts
Lowest cloud amount
broken clouds
Temperature
19°C
Dew point
19°C
Humidity
100%
QNH
1016 hPa
Weather condition
n/a

Description

Bengaluru International Airport is an international airport serving the Indian city of Bangalore and is located 4 km south of Devanahalli and is 40 km from the central business district of Bangalore, in the state of Karnataka, India.

Climatology

Tropical Savanna climate (Köppen climate classification Aw) - monthly mean temperatures above 18°C, and a pronounced dry season. A Tropical Savanna climate has more pronounced dry seasons than a Tropical Monsoon climate.

Runways

Designator Length Width Surface Rops
9/27 4000 45 paved Yes/Yes
Airport map: 
Aerial View: 

SKYbrary Partners:

Safety knowledge contributed by: